createdAt,value
2023-04-23T00:04:22.199Z,100.00
2023-04-23T00:09:26.685Z,100.00
2023-04-23T00:14:30.535Z,100.00
2023-04-23T00:19:35.152Z,100.00
2023-04-23T00:24:39.342Z,100.00
2023-04-23T00:29:43.510Z,100.00
2023-04-23T00:34:49.328Z,100.00
2023-04-23T00:39:52.558Z,100.00
2023-04-23T00:44:57.124Z,100.00
2023-04-23T00:50:02.344Z,100.00
2023-04-23T00:55:06.387Z,100.00
2023-04-23T01:00:12.598Z,100.00
2023-04-23T01:05:18.677Z,100.00
2023-04-23T01:10:22.634Z,100.00
2023-04-23T01:15:25.944Z,100.00
2023-04-23T01:20:30.712Z,100.00
2023-04-23T01:25:36.203Z,100.00
2023-04-23T01:30:40.216Z,100.00
2023-04-23T01:35:44.777Z,100.00
2023-04-23T01:40:49.513Z,100.00
2023-04-23T01:45:52.963Z,100.00
2023-04-23T01:50:56.316Z,100.00
2023-04-23T01:56:02.718Z,100.00
2023-04-23T02:01:06.107Z,100.00
2023-04-23T02:06:10.116Z,100.00
2023-04-23T02:11:14.865Z,100.00
2023-04-23T02:16:18.516Z,100.00
2023-04-23T02:21:22.008Z,100.00
2023-04-23T02:26:27.316Z,100.00
2023-04-23T02:31:30.621Z,100.00
2023-04-23T02:36:34.000Z,100.00
2023-04-23T02:41:38.692Z,100.00
2023-04-23T02:46:41.912Z,100.00
2023-04-23T02:51:45.088Z,100.00
2023-04-23T02:56:49.810Z,100.00
2023-04-23T03:01:53.999Z,100.00
2023-04-23T03:06:57.491Z,100.00
2023-04-23T03:12:02.430Z,100.00
2023-04-23T03:17:06.487Z,100.00
2023-04-23T03:22:10.252Z,100.00
2023-04-23T03:27:15.007Z,100.00
2023-04-23T03:32:18.498Z,100.00
2023-04-23T03:37:21.904Z,100.00
2023-04-23T03:42:27.280Z,100.00
2023-04-23T03:47:31.198Z,100.00
2023-04-23T03:52:34.967Z,100.00
2023-04-23T03:57:40.640Z,100.00
2023-04-23T04:02:56.360Z,100.00
2023-04-23T04:08:03.090Z,100.00
2023-04-23T04:13:07.932Z,100.00
2023-04-23T04:18:11.102Z,100.00
2023-04-23T04:23:14.303Z,100.00
2023-04-23T04:28:19.050Z,100.00
2023-04-23T04:33:22.156Z,100.00
2023-04-23T04:38:25.431Z,100.00
2023-04-23T04:43:30.290Z,100.00
2023-04-23T04:48:33.612Z,100.00
2023-04-23T04:53:37.075Z,100.00
2023-04-23T04:58:41.664Z,100.00
2023-04-23T05:03:45.063Z,100.00
2023-04-23T05:08:49.099Z,100.00
2023-04-23T05:13:53.699Z,100.00
2023-04-23T05:18:56.884Z,100.00
2023-04-23T05:24:00.278Z,100.00
2023-04-23T05:29:05.064Z,100.00
2023-04-23T05:34:08.203Z,100.00
2023-04-23T05:39:11.547Z,100.00
2023-04-23T05:44:16.100Z,100.00
2023-04-23T05:49:19.497Z,100.00
2023-04-23T05:54:22.912Z,100.00
2023-04-23T05:59:27.956Z,100.00
2023-04-23T06:04:31.928Z,100.00
2023-04-23T06:09:35.964Z,100.00
2023-04-23T06:14:40.835Z,100.00
2023-04-23T06:19:44.457Z,100.00
2023-04-23T06:24:48.786Z,100.00
2023-04-23T06:29:54.318Z,100.00
2023-04-23T06:35:02.060Z,100.00
2023-04-23T06:40:07.965Z,100.00
2023-04-23T06:45:15.262Z,100.00
2023-04-23T06:50:18.667Z,100.00
2023-04-23T06:55:26.432Z,100.00
2023-04-23T07:00:31.539Z,99.12
2023-04-23T07:05:36.475Z,97.87
2023-04-23T07:10:42.154Z,99.33
2023-04-23T07:15:49.013Z,99.53
2023-04-23T07:20:53.535Z,93.50
2023-04-23T07:25:57.170Z,93.51
2023-04-23T07:31:03.312Z,89.40
2023-04-23T07:36:07.208Z,89.76
2023-04-23T07:41:10.778Z,81.78
2023-04-23T07:46:15.860Z,87.11
2023-04-23T07:51:19.266Z,85.40
2023-04-23T07:56:24.546Z,83.47
2023-04-23T08:01:29.809Z,83.32
2023-04-23T08:06:35.637Z,82.08
2023-04-23T08:11:39.590Z,76.42
2023-04-23T08:16:44.645Z,75.43
2023-04-23T08:21:49.191Z,70.17
2023-04-23T08:26:53.279Z,68.12
2023-04-23T08:31:58.358Z,68.38
2023-04-23T08:37:01.759Z,65.56
2023-04-23T08:42:12.350Z,63.83
2023-04-23T08:47:20.108Z,65.79
2023-04-23T08:52:26.018Z,65.13
2023-04-23T08:57:29.651Z,61.37
2023-04-23T09:02:35.276Z,64.48
2023-04-23T09:07:38.966Z,61.49
2023-04-23T09:12:45.163Z,59.17
2023-04-23T09:17:51.272Z,57.05
2023-04-23T09:22:54.613Z,56.31
2023-04-23T09:28:00.583Z,59.48
2023-04-23T09:33:07.098Z,57.44
2023-04-23T09:38:10.878Z,56.85
2023-04-23T09:43:14.225Z,59.36
2023-04-23T09:48:19.181Z,60.18
2023-04-23T09:53:22.428Z,64.00
2023-04-23T09:58:28.836Z,63.36
2023-04-23T10:03:33.776Z,61.15
2023-04-23T10:08:37.543Z,59.62
2023-04-23T10:13:41.117Z,56.98
2023-04-23T10:18:47.087Z,58.47
2023-04-23T10:23:52.765Z,56.81
2023-04-23T10:28:57.037Z,55.20
2023-04-23T10:34:06.198Z,55.21
2023-04-23T10:39:10.521Z,56.96
2023-04-23T10:44:17.235Z,56.98
2023-04-23T10:49:24.224Z,57.38
2023-04-23T10:54:31.543Z,53.75
2023-04-23T10:59:35.860Z,53.13
2023-04-23T11:04:46.797Z,52.99
2023-04-23T11:09:53.740Z,51.82
2023-04-23T11:14:59.568Z,51.66
2023-04-23T11:20:16.465Z,49.97
2023-04-23T11:25:22.623Z,51.17
2023-04-23T11:30:28.162Z,50.06
2023-04-23T11:35:40.052Z,49.04
2023-04-23T11:40:43.955Z,51.42
2023-04-23T11:45:48.008Z,49.23
2023-04-23T11:50:54.129Z,47.49
2023-04-23T11:55:57.697Z,49.71
2023-04-23T12:01:02.366Z,51.17
2023-04-23T12:06:08.372Z,49.26
2023-04-23T12:11:15.248Z,47.63
2023-04-23T12:16:18.860Z,48.06
2023-04-23T12:21:26.175Z,48.16
2023-04-23T12:26:32.044Z,50.09
2023-04-23T12:31:39.070Z,47.95
2023-04-23T12:36:47.949Z,47.36
2023-04-23T12:41:53.549Z,49.31
2023-04-23T12:46:58.487Z,46.30
2023-04-23T12:52:05.792Z,47.11
2023-04-23T12:57:14.377Z,47.99
2023-04-23T13:02:18.286Z,47.44
2023-04-23T13:07:23.952Z,48.17
2023-04-23T13:12:28.490Z,46.68
2023-04-23T13:17:32.220Z,46.13
2023-04-23T13:22:37.729Z,45.95
2023-04-23T13:27:42.658Z,47.43
2023-04-23T13:32:47.188Z,46.15
2023-04-23T13:37:52.373Z,43.73
2023-04-23T13:48:01.952Z,43.52
2023-04-23T13:53:08.745Z,44.25
2023-04-23T13:58:12.477Z,45.41
2023-04-23T14:03:16.478Z,44.75
2023-04-23T14:08:22.055Z,44.51
2023-04-23T14:13:25.641Z,44.47
2023-04-23T14:18:30.556Z,44.17
2023-04-23T14:23:57.444Z,44.26
2023-04-23T14:29:10.944Z,45.77
2023-04-23T14:34:14.543Z,45.80
2023-04-23T14:39:21.936Z,46.44
2023-04-23T14:44:26.744Z,45.81
2023-04-23T14:49:35.530Z,43.07
2023-04-23T14:54:42.361Z,44.68
2023-04-23T14:59:46.991Z,46.09
2023-04-23T15:04:50.675Z,45.99
2023-04-23T15:09:55.665Z,46.20
2023-04-23T15:14:59.204Z,45.56
2023-04-23T15:20:03.362Z,46.03
2023-04-23T15:25:09.347Z,45.76
2023-04-23T15:30:13.546Z,46.18
2023-04-23T15:35:19.952Z,47.00
2023-04-23T15:40:26.693Z,45.14
2023-04-23T15:45:29.963Z,43.69
2023-04-23T15:50:33.951Z,45.71
2023-04-23T15:55:40.154Z,43.91
2023-04-23T16:00:43.684Z,44.43
2023-04-23T16:05:48.405Z,44.63
2023-04-23T16:10:53.504Z,43.83
2023-04-23T16:15:57.084Z,43.35
2023-04-23T16:21:01.687Z,44.26
2023-04-23T16:26:09.363Z,44.32
2023-04-23T16:31:14.059Z,45.20
2023-04-23T16:36:19.009Z,44.89
2023-04-23T16:41:23.995Z,46.72
2023-04-23T16:46:31.247Z,47.81
2023-04-23T16:51:35.020Z,47.85
2023-04-23T16:56:39.881Z,48.22
2023-04-23T17:01:43.651Z,49.39
2023-04-23T17:06:46.962Z,49.42
2023-04-23T17:11:52.498Z,49.01
2023-04-23T17:16:56.277Z,49.17
2023-04-23T17:22:00.269Z,49.31
2023-04-23T17:27:05.041Z,50.12
2023-04-23T17:32:09.059Z,50.58
2023-04-23T17:37:14.879Z,51.82
2023-04-23T17:42:20.537Z,53.51
2023-04-23T17:47:25.285Z,53.51
2023-04-23T17:52:28.944Z,54.78
2023-04-23T17:57:34.656Z,57.91
2023-04-23T18:02:40.449Z,58.64
2023-04-23T18:07:46.423Z,62.06
2023-04-23T18:12:51.818Z,68.81
2023-04-23T18:17:55.916Z,70.05
2023-04-23T18:23:00.047Z,74.25
2023-04-23T18:28:05.314Z,78.53
2023-04-23T18:33:14.745Z,82.37
2023-04-23T18:38:25.918Z,85.73
2023-04-23T18:43:31.916Z,87.63
2023-04-23T18:48:47.994Z,94.75
2023-04-23T18:53:51.602Z,96.09
2023-04-23T18:58:57.517Z,97.61
2023-04-23T19:04:02.102Z,98.53
2023-04-23T19:09:05.892Z,99.78
2023-04-23T19:14:10.710Z,100.00
2023-04-23T19:19:14.923Z,100.00
2023-04-23T19:24:18.822Z,100.00
2023-04-23T19:29:25.020Z,100.00
2023-04-23T19:34:28.584Z,100.00
2023-04-23T19:39:32.248Z,100.00
2023-04-23T19:44:37.546Z,100.00
2023-04-23T19:49:41.542Z,100.00
2023-04-23T19:54:49.051Z,100.00
2023-04-23T19:59:53.705Z,100.00
2023-04-23T20:04:57.129Z,100.00
2023-04-23T20:10:00.949Z,100.00
2023-04-23T20:15:06.355Z,100.00
2023-04-23T20:20:11.087Z,100.00
2023-04-23T20:25:15.266Z,100.00
2023-04-23T20:30:20.787Z,100.00
2023-04-23T20:35:24.212Z,100.00
2023-04-23T20:40:27.866Z,100.00
2023-04-23T20:45:32.600Z,100.00
2023-04-23T20:50:36.029Z,100.00
2023-04-23T20:55:39.243Z,100.00
2023-04-23T21:00:44.942Z,100.00
2023-04-23T21:05:49.216Z,100.00
2023-04-23T21:10:54.509Z,100.00
2023-04-23T21:15:59.272Z,100.00
2023-04-23T21:21:03.061Z,100.00
2023-04-23T21:26:07.756Z,100.00
2023-04-23T21:31:16.092Z,100.00
2023-04-23T21:36:19.590Z,100.00
2023-04-23T21:41:23.224Z,100.00
2023-04-23T21:46:28.251Z,100.00
2023-04-23T21:51:36.057Z,100.00
2023-04-23T21:56:39.810Z,100.00
2023-04-23T22:01:45.310Z,100.00
2023-04-23T22:06:48.927Z,100.00
2023-04-23T22:12:01.985Z,100.00
2023-04-23T22:17:09.332Z,100.00
2023-04-23T22:22:13.130Z,100.00
2023-04-23T22:27:16.467Z,100.00
2023-04-23T22:32:21.241Z,100.00
2023-04-23T22:37:24.804Z,100.00
2023-04-23T22:42:28.003Z,100.00
2023-04-23T22:47:32.723Z,100.00
2023-04-23T22:52:35.908Z,100.00
2023-04-23T22:57:40.145Z,100.00
2023-04-23T23:02:44.877Z,100.00
2023-04-23T23:07:48.141Z,100.00
2023-04-23T23:12:51.377Z,100.00
2023-04-23T23:17:56.115Z,100.00
2023-04-23T23:22:59.306Z,100.00
2023-04-23T23:28:02.476Z,100.00
2023-04-23T23:33:07.241Z,100.00
2023-04-23T23:38:10.771Z,100.00
2023-04-23T23:43:13.975Z,100.00
2023-04-23T23:48:18.927Z,100.00
2023-04-23T23:53:22.357Z,100.00
2023-04-23T23:58:25.406Z,100.00
